sensor_id;sensor_type;location;lat;lon;timestamp;P1;durP1;ratioP1;P2;durP2;ratioP2
14760;SDS011;7472;45.396;5.272;2022-11-09T00:00:09;3.00;;;2.35;;
14760;SDS011;7472;45.396;5.272;2022-11-09T00:02:36;5.40;;;2.47;;
14760;SDS011;7472;45.396;5.272;2022-11-09T00:05:04;2.75;;;1.88;;
14760;SDS011;7472;45.396;5.272;2022-11-09T00:07:33;3.92;;;2.15;;
14760;SDS011;7472;45.396;5.272;2022-11-09T00:10:00;3.42;;;2.08;;
14760;SDS011;7472;45.396;5.272;2022-11-09T00:12:28;2.35;;;1.90;;
14760;SDS011;7472;45.396;5.272;2022-11-09T00:14:55;4.35;;;2.03;;
14760;SDS011;7472;45.396;5.272;2022-11-09T00:17:22;3.90;;;2.15;;
14760;SDS011;7472;45.396;5.272;2022-11-09T00:19:50;3.42;;;2.10;;
14760;SDS011;7472;45.396;5.272;2022-11-09T00:22:17;3.63;;;1.90;;
14760;SDS011;7472;45.396;5.272;2022-11-09T00:24:46;5.78;;;2.20;;
14760;SDS011;7472;45.396;5.272;2022-11-09T00:27:13;5.72;;;2.30;;
14760;SDS011;7472;45.396;5.272;2022-11-09T00:29:41;3.35;;;1.90;;
14760;SDS011;7472;45.396;5.272;2022-11-09T00:32:08;4.45;;;2.17;;
14760;SDS011;7472;45.396;5.272;2022-11-09T00:34:35;2.80;;;2.45;;
14760;SDS011;7472;45.396;5.272;2022-11-09T00:37:03;3.53;;;1.92;;
14760;SDS011;7472;45.396;5.272;2022-11-09T00:39:30;5.90;;;1.98;;
14760;SDS011;7472;45.396;5.272;2022-11-09T00:41:59;2.40;;;1.88;;
14760;SDS011;7472;45.396;5.272;2022-11-09T00:44:26;3.58;;;1.88;;
14760;SDS011;7472;45.396;5.272;2022-11-09T00:46:54;3.00;;;2.00;;
14760;SDS011;7472;45.396;5.272;2022-11-09T00:49:21;3.47;;;1.67;;
14760;SDS011;7472;45.396;5.272;2022-11-09T00:51:48;2.45;;;1.90;;
14760;SDS011;7472;45.396;5.272;2022-11-09T00:54:16;3.88;;;1.80;;
14760;SDS011;7472;45.396;5.272;2022-11-09T00:56:43;2.58;;;1.73;;
14760;SDS011;7472;45.396;5.272;2022-11-09T00:59:12;4.63;;;1.63;;
14760;SDS011;7472;45.396;5.272;2022-11-09T01:01:39;3.20;;;1.73;;
14760;SDS011;7472;45.396;5.272;2022-11-09T01:04:07;4.45;;;1.77;;
14760;SDS011;7472;45.396;5.272;2022-11-09T01:06:34;5.88;;;2.15;;
14760;SDS011;7472;45.396;5.272;2022-11-09T01:09:01;4.30;;;2.35;;
14760;SDS011;7472;45.396;5.272;2022-11-09T01:11:29;2.13;;;1.42;;
14760;SDS011;7472;45.396;5.272;2022-11-09T01:13:57;6.43;;;2.00;;
14760;SDS011;7472;45.396;5.272;2022-11-09T01:16:26;4.88;;;1.60;;
14760;SDS011;7472;45.396;5.272;2022-11-09T01:18:53;6.85;;;2.10;;
14760;SDS011;7472;45.396;5.272;2022-11-09T01:21:21;3.45;;;2.03;;
14760;SDS011;7472;45.396;5.272;2022-11-09T01:23:48;3.53;;;2.05;;
14760;SDS011;7472;45.396;5.272;2022-11-09T01:26:16;2.58;;;1.73;;
14760;SDS011;7472;45.396;5.272;2022-11-09T01:28:43;4.25;;;1.90;;
14760;SDS011;7472;45.396;5.272;2022-11-09T01:31:12;4.30;;;1.83;;
14760;SDS011;7472;45.396;5.272;2022-11-09T01:33:41;3.42;;;1.65;;
14760;SDS011;7472;45.396;5.272;2022-11-09T01:36:10;5.47;;;1.88;;
14760;SDS011;7472;45.396;5.272;2022-11-09T01:38:37;4.10;;;1.73;;
14760;SDS011;7472;45.396;5.272;2022-11-09T01:41:05;4.15;;;1.45;;
14760;SDS011;7472;45.396;5.272;2022-11-09T01:43:33;4.18;;;1.60;;
14760;SDS011;7472;45.396;5.272;2022-11-09T01:46:02;3.90;;;1.58;;
14760;SDS011;7472;45.396;5.272;2022-11-09T01:48:32;3.47;;;1.77;;
14760;SDS011;7472;45.396;5.272;2022-11-09T01:51:03;4.97;;;1.70;;
14760;SDS011;7472;45.396;5.272;2022-11-09T01:53:33;4.35;;;1.85;;
14760;SDS011;7472;45.396;5.272;2022-11-09T01:56:04;2.70;;;1.80;;
14760;SDS011;7472;45.396;5.272;2022-11-09T01:58:36;2.33;;;1.38;;
14760;SDS011;7472;45.396;5.272;2022-11-09T02:01:05;3.78;;;1.45;;
14760;SDS011;7472;45.396;5.272;2022-11-09T02:03:36;4.25;;;1.70;;
14760;SDS011;7472;45.396;5.272;2022-11-09T02:06:07;3.83;;;1.90;;
14760;SDS011;7472;45.396;5.272;2022-11-09T02:08:35;2.70;;;1.63;;
14760;SDS011;7472;45.396;5.272;2022-11-09T02:11:05;3.28;;;1.80;;
14760;SDS011;7472;45.396;5.272;2022-11-09T02:13:33;3.63;;;1.60;;
14760;SDS011;7472;45.396;5.272;2022-11-09T02:16:01;6.97;;;1.92;;
14760;SDS011;7472;45.396;5.272;2022-11-09T02:18:29;2.05;;;1.75;;
14760;SDS011;7472;45.396;5.272;2022-11-09T02:20:58;2.50;;;1.98;;
14760;SDS011;7472;45.396;5.272;2022-11-09T02:23:26;4.88;;;1.60;;
14760;SDS011;7472;45.396;5.272;2022-11-09T02:25:54;4.22;;;1.80;;
14760;SDS011;7472;45.396;5.272;2022-11-09T02:28:23;3.38;;;1.83;;
14760;SDS011;7472;45.396;5.272;2022-11-09T02:30:51;4.78;;;1.33;;
14760;SDS011;7472;45.396;5.272;2022-11-09T02:33:20;3.92;;;1.75;;
14760;SDS011;7472;45.396;5.272;2022-11-09T02:35:48;6.40;;;1.92;;
14760;SDS011;7472;45.396;5.272;2022-11-09T02:38:17;3.22;;;1.75;;
14760;SDS011;7472;45.396;5.272;2022-11-09T02:40:46;3.03;;;1.67;;
14760;SDS011;7472;45.396;5.272;2022-11-09T02:43:14;3.17;;;1.55;;
14760;SDS011;7472;45.396;5.272;2022-11-09T02:45:41;7.65;;;1.60;;
14760;SDS011;7472;45.396;5.272;2022-11-09T02:48:09;2.63;;;1.85;;
14760;SDS011;7472;45.396;5.272;2022-11-09T02:50:36;4.15;;;1.75;;
14760;SDS011;7472;45.396;5.272;2022-11-09T02:53:04;2.42;;;1.75;;
14760;SDS011;7472;45.396;5.272;2022-11-09T02:55:32;7.00;;;1.80;;
14760;SDS011;7472;45.396;5.272;2022-11-09T02:58:00;4.82;;;2.38;;
14760;SDS011;7472;45.396;5.272;2022-11-09T03:00:27;3.38;;;1.85;;
14760;SDS011;7472;45.396;5.272;2022-11-09T03:02:54;3.35;;;1.70;;
14760;SDS011;7472;45.396;5.272;2022-11-09T03:05:22;3.10;;;1.88;;
14760;SDS011;7472;45.396;5.272;2022-11-09T03:07:49;4.70;;;1.90;;
14760;SDS011;7472;45.396;5.272;2022-11-09T03:10:17;2.63;;;1.65;;
14760;SDS011;7472;45.396;5.272;2022-11-09T03:12:45;3.33;;;1.90;;
14760;SDS011;7472;45.396;5.272;2022-11-09T03:15:13;3.05;;;1.58;;
14760;SDS011;7472;45.396;5.272;2022-11-09T03:17:40;3.30;;;1.70;;
14760;SDS011;7472;45.396;5.272;2022-11-09T03:20:08;3.97;;;1.92;;
14760;SDS011;7472;45.396;5.272;2022-11-09T03:22:37;3.45;;;1.55;;
14760;SDS011;7472;45.396;5.272;2022-11-09T03:25:05;4.97;;;1.60;;
14760;SDS011;7472;45.396;5.272;2022-11-09T03:27:32;5.35;;;1.83;;
14760;SDS011;7472;45.396;5.272;2022-11-09T03:30:01;2.67;;;1.83;;
14760;SDS011;7472;45.396;5.272;2022-11-09T03:32:28;4.10;;;1.65;;
14760;SDS011;7472;45.396;5.272;2022-11-09T03:34:56;4.07;;;2.08;;
14760;SDS011;7472;45.396;5.272;2022-11-09T03:37:23;3.80;;;1.92;;
14760;SDS011;7472;45.396;5.272;2022-11-09T03:39:50;5.43;;;2.08;;
14760;SDS011;7472;45.396;5.272;2022-11-09T03:42:18;3.80;;;1.70;;
14760;SDS011;7472;45.396;5.272;2022-11-09T03:44:45;4.05;;;1.80;;
14760;SDS011;7472;45.396;5.272;2022-11-09T03:47:14;4.20;;;1.70;;
14760;SDS011;7472;45.396;5.272;2022-11-09T03:49:41;3.75;;;1.88;;
14760;SDS011;7472;45.396;5.272;2022-11-09T03:52:09;3.15;;;1.77;;
14760;SDS011;7472;45.396;5.272;2022-11-09T03:54:36;4.13;;;1.90;;
14760;SDS011;7472;45.396;5.272;2022-11-09T03:57:03;3.42;;;1.85;;
14760;SDS011;7472;45.396;5.272;2022-11-09T03:59:31;3.35;;;1.55;;
14760;SDS011;7472;45.396;5.272;2022-11-09T04:01:58;6.20;;;2.08;;
14760;SDS011;7472;45.396;5.272;2022-11-09T04:04:27;3.10;;;1.90;;
14760;SDS011;7472;45.396;5.272;2022-11-09T04:06:54;3.40;;;1.90;;
14760;SDS011;7472;45.396;5.272;2022-11-09T04:09:22;2.95;;;1.83;;
14760;SDS011;7472;45.396;5.272;2022-11-09T04:11:49;5.03;;;1.90;;
14760;SDS011;7472;45.396;5.272;2022-11-09T04:14:16;5.30;;;1.90;;
14760;SDS011;7472;45.396;5.272;2022-11-09T04:16:44;4.93;;;2.00;;
14760;SDS011;7472;45.396;5.272;2022-11-09T04:19:11;1.70;;;1.60;;
14760;SDS011;7472;45.396;5.272;2022-11-09T04:21:40;8.45;;;2.40;;
14760;SDS011;7472;45.396;5.272;2022-11-09T04:24:07;5.15;;;2.50;;
14760;SDS011;7472;45.396;5.272;2022-11-09T04:26:35;3.88;;;2.08;;
14760;SDS011;7472;45.396;5.272;2022-11-09T04:29:02;4.97;;;2.30;;
14760;SDS011;7472;45.396;5.272;2022-11-09T04:31:30;8.20;;;2.28;;
14760;SDS011;7472;45.396;5.272;2022-11-09T04:33:57;5.22;;;2.13;;
14760;SDS011;7472;45.396;5.272;2022-11-09T04:36:25;7.55;;;2.55;;
14760;SDS011;7472;45.396;5.272;2022-11-09T04:38:54;3.90;;;2.15;;
14760;SDS011;7472;45.396;5.272;2022-11-09T04:41:21;3.83;;;2.03;;
14760;SDS011;7472;45.396;5.272;2022-11-09T04:43:49;4.40;;;2.00;;
14760;SDS011;7472;45.396;5.272;2022-11-09T04:46:16;3.67;;;2.33;;
14760;SDS011;7472;45.396;5.272;2022-11-09T04:48:44;3.90;;;1.98;;
14760;SDS011;7472;45.396;5.272;2022-11-09T04:51:11;3.17;;;2.03;;
14760;SDS011;7472;45.396;5.272;2022-11-09T04:53:38;5.95;;;2.30;;
14760;SDS011;7472;45.396;5.272;2022-11-09T04:56:07;4.43;;;2.47;;
14760;SDS011;7472;45.396;5.272;2022-11-09T04:58:35;5.65;;;2.75;;
14760;SDS011;7472;45.396;5.272;2022-11-09T05:01:02;7.43;;;2.38;;
14760;SDS011;7472;45.396;5.272;2022-11-09T05:03:30;3.53;;;2.80;;
14760;SDS011;7472;45.396;5.272;2022-11-09T05:05:57;5.22;;;2.40;;
14760;SDS011;7472;45.396;5.272;2022-11-09T05:08:25;2.47;;;2.28;;
14760;SDS011;7472;45.396;5.272;2022-11-09T05:10:54;7.13;;;2.55;;
14760;SDS011;7472;45.396;5.272;2022-11-09T05:13:24;6.35;;;2.30;;
14760;SDS011;7472;45.396;5.272;2022-11-09T05:15:51;6.32;;;2.22;;
14760;SDS011;7472;45.396;5.272;2022-11-09T05:18:18;4.78;;;2.15;;
14760;SDS011;7472;45.396;5.272;2022-11-09T05:20:46;4.93;;;2.17;;
14760;SDS011;7472;45.396;5.272;2022-11-09T05:23:13;8.57;;;2.60;;
14760;SDS011;7472;45.396;5.272;2022-11-09T05:25:58;4.07;;;2.13;;
14760;SDS011;7472;45.396;5.272;2022-11-09T05:28:27;3.95;;;2.47;;
14760;SDS011;7472;45.396;5.272;2022-11-09T05:30:54;3.80;;;2.40;;
14760;SDS011;7472;45.396;5.272;2022-11-09T05:33:22;3.85;;;2.70;;
14760;SDS011;7472;45.396;5.272;2022-11-09T05:35:49;3.28;;;2.53;;
14760;SDS011;7472;45.396;5.272;2022-11-09T05:38:16;5.70;;;2.40;;
14760;SDS011;7472;45.396;5.272;2022-11-09T05:40:46;3.72;;;2.00;;
14760;SDS011;7472;45.396;5.272;2022-11-09T05:43:13;3.38;;;2.20;;
14760;SDS011;7472;45.396;5.272;2022-11-09T05:45:42;4.15;;;2.42;;
14760;SDS011;7472;45.396;5.272;2022-11-09T05:48:10;3.15;;;2.33;;
14760;SDS011;7472;45.396;5.272;2022-11-09T05:50:37;7.47;;;3.03;;
14760;SDS011;7472;45.396;5.272;2022-11-09T05:53:05;4.55;;;2.40;;
14760;SDS011;7472;45.396;5.272;2022-11-09T05:55:33;3.10;;;2.13;;
14760;SDS011;7472;45.396;5.272;2022-11-09T05:58:00;2.70;;;2.10;;
14760;SDS011;7472;45.396;5.272;2022-11-09T06:00:27;3.38;;;2.58;;
14760;SDS011;7472;45.396;5.272;2022-11-09T06:03:01;7.72;;;5.35;;
14760;SDS011;7472;45.396;5.272;2022-11-09T06:05:29;14.85;;;13.45;;
14760;SDS011;7472;45.396;5.272;2022-11-09T06:08:00;21.40;;;19.08;;
14760;SDS011;7472;45.396;5.272;2022-11-09T06:10:28;23.35;;;20.83;;
14760;SDS011;7472;45.396;5.272;2022-11-09T06:12:56;18.65;;;16.85;;
14760;SDS011;7472;45.396;5.272;2022-11-09T06:15:23;10.77;;;9.77;;
14760;SDS011;7472;45.396;5.272;2022-11-09T06:17:51;10.48;;;7.57;;
14760;SDS011;7472;45.396;5.272;2022-11-09T06:20:19;7.25;;;6.55;;
14760;SDS011;7472;45.396;5.272;2022-11-09T06:22:51;5.78;;;5.20;;
14760;SDS011;7472;45.396;5.272;2022-11-09T06:25:19;5.47;;;4.65;;
14760;SDS011;7472;45.396;5.272;2022-11-09T06:27:47;5.30;;;4.80;;
14760;SDS011;7472;45.396;5.272;2022-11-09T06:30:14;5.72;;;4.32;;
14760;SDS011;7472;45.396;5.272;2022-11-09T06:32:42;7.40;;;4.32;;
14760;SDS011;7472;45.396;5.272;2022-11-09T06:35:09;7.28;;;3.78;;
14760;SDS011;7472;45.396;5.272;2022-11-09T06:37:38;8.30;;;4.38;;
14760;SDS011;7472;45.396;5.272;2022-11-09T06:40:06;8.65;;;4.35;;
14760;SDS011;7472;45.396;5.272;2022-11-09T06:42:34;7.80;;;4.72;;
14760;SDS011;7472;45.396;5.272;2022-11-09T06:45:01;5.18;;;3.75;;
14760;SDS011;7472;45.396;5.272;2022-11-09T06:47:29;6.95;;;5.43;;
14760;SDS011;7472;45.396;5.272;2022-11-09T06:49:56;6.75;;;4.63;;
14760;SDS011;7472;45.396;5.272;2022-11-09T06:52:24;6.30;;;4.93;;
14760;SDS011;7472;45.396;5.272;2022-11-09T06:54:52;7.38;;;5.13;;
14760;SDS011;7472;45.396;5.272;2022-11-09T06:57:20;7.85;;;5.60;;
14760;SDS011;7472;45.396;5.272;2022-11-09T06:59:47;8.00;;;6.00;;
14760;SDS011;7472;45.396;5.272;2022-11-09T07:02:15;8.30;;;7.20;;
14760;SDS011;7472;45.396;5.272;2022-11-09T07:04:43;9.98;;;6.45;;
14760;SDS011;7472;45.396;5.272;2022-11-09T07:07:10;6.80;;;6.13;;
14760;SDS011;7472;45.396;5.272;2022-11-09T07:09:38;6.68;;;5.70;;
14760;SDS011;7472;45.396;5.272;2022-11-09T07:12:07;6.63;;;5.18;;
14760;SDS011;7472;45.396;5.272;2022-11-09T07:14:35;4.70;;;4.18;;
14760;SDS011;7472;45.396;5.272;2022-11-09T07:17:02;7.45;;;4.47;;
14760;SDS011;7472;45.396;5.272;2022-11-09T07:19:30;5.57;;;5.07;;
14760;SDS011;7472;45.396;5.272;2022-11-09T07:21:57;8.18;;;6.82;;
14760;SDS011;7472;45.396;5.272;2022-11-09T07:24:24;10.93;;;7.75;;
14760;SDS011;7472;45.396;5.272;2022-11-09T07:26:52;21.50;;;14.35;;
14760;SDS011;7472;45.396;5.272;2022-11-09T07:29:21;14.77;;;12.20;;
14760;SDS011;7472;45.396;5.272;2022-11-09T07:31:48;17.70;;;11.73;;
14760;SDS011;7472;45.396;5.272;2022-11-09T07:34:15;13.13;;;11.23;;
14760;SDS011;7472;45.396;5.272;2022-11-09T07:36:43;15.20;;;11.40;;
14760;SDS011;7472;45.396;5.272;2022-11-09T07:39:10;13.85;;;12.20;;
14760;SDS011;7472;45.396;5.272;2022-11-09T07:41:38;15.07;;;11.45;;
14760;SDS011;7472;45.396;5.272;2022-11-09T07:44:05;12.70;;;11.40;;
14760;SDS011;7472;45.396;5.272;2022-11-09T07:46:34;16.95;;;12.50;;
14760;SDS011;7472;45.396;5.272;2022-11-09T07:49:01;12.65;;;11.35;;
14760;SDS011;7472;45.396;5.272;2022-11-09T07:51:29;12.50;;;10.23;;
14760;SDS011;7472;45.396;5.272;2022-11-09T07:53:56;12.07;;;10.65;;
14760;SDS011;7472;45.396;5.272;2022-11-09T07:56:24;12.07;;;10.85;;
14760;SDS011;7472;45.396;5.272;2022-11-09T07:58:51;14.57;;;11.18;;
14760;SDS011;7472;45.396;5.272;2022-11-09T08:01:19;12.18;;;10.95;;
14760;SDS011;7472;45.396;5.272;2022-11-09T08:03:48;13.30;;;11.57;;
14760;SDS011;7472;45.396;5.272;2022-11-09T08:06:15;11.88;;;10.48;;
14760;SDS011;7472;45.396;5.272;2022-11-09T08:08:42;13.68;;;12.32;;
14760;SDS011;7472;45.396;5.272;2022-11-09T08:11:10;13.05;;;11.02;;
14760;SDS011;7472;45.396;5.272;2022-11-09T08:13:37;12.18;;;11.02;;
14760;SDS011;7472;45.396;5.272;2022-11-09T08:16:05;12.88;;;11.57;;
14760;SDS011;7472;45.396;5.272;2022-11-09T08:18:32;18.25;;;14.25;;
14760;SDS011;7472;45.396;5.272;2022-11-09T08:21:01;17.65;;;14.43;;
14760;SDS011;7472;45.396;5.272;2022-11-09T08:23:29;14.00;;;12.68;;
14760;SDS011;7472;45.396;5.272;2022-11-09T08:26:00;14.23;;;12.82;;
14760;SDS011;7472;45.396;5.272;2022-11-09T08:28:27;13.18;;;11.88;;
14760;SDS011;7472;45.396;5.272;2022-11-09T08:30:55;13.98;;;11.65;;
14760;SDS011;7472;45.396;5.272;2022-11-09T08:33:23;16.00;;;14.35;;
14760;SDS011;7472;45.396;5.272;2022-11-09T08:35:51;20.73;;;16.55;;
14760;SDS011;7472;45.396;5.272;2022-11-09T08:38:20;19.35;;;14.85;;
14760;SDS011;7472;45.396;5.272;2022-11-09T08:40:48;21.48;;;18.65;;
14760;SDS011;7472;45.396;5.272;2022-11-09T08:43:15;20.75;;;17.90;;
14760;SDS011;7472;45.396;5.272;2022-11-09T08:45:43;17.67;;;13.90;;
14760;SDS011;7472;45.396;5.272;2022-11-09T08:48:10;15.48;;;13.38;;
14760;SDS011;7472;45.396;5.272;2022-11-09T08:50:38;13.13;;;11.63;;
14760;SDS011;7472;45.396;5.272;2022-11-09T08:53:05;9.23;;;7.97;;
14760;SDS011;7472;45.396;5.272;2022-11-09T08:55:34;10.65;;;8.50;;
14760;SDS011;7472;45.396;5.272;2022-11-09T08:58:02;8.73;;;7.82;;
14760;SDS011;7472;45.396;5.272;2022-11-09T09:00:30;8.35;;;7.53;;
14760;SDS011;7472;45.396;5.272;2022-11-09T09:02:57;7.13;;;6.30;;
14760;SDS011;7472;45.396;5.272;2022-11-09T09:05:25;6.18;;;5.45;;
14760;SDS011;7472;45.396;5.272;2022-11-09T09:07:52;6.30;;;5.70;;
14760;SDS011;7472;45.396;5.272;2022-11-09T09:10:20;7.05;;;6.35;;
14760;SDS011;7472;45.396;5.272;2022-11-09T09:12:49;4.70;;;4.10;;
14760;SDS011;7472;45.396;5.272;2022-11-09T09:15:16;5.00;;;4.10;;
14760;SDS011;7472;45.396;5.272;2022-11-09T09:17:43;5.60;;;4.22;;
14760;SDS011;7472;45.396;5.272;2022-11-09T09:20:11;4.63;;;4.15;;
14760;SDS011;7472;45.396;5.272;2022-11-09T09:22:38;5.22;;;4.07;;
14760;SDS011;7472;45.396;5.272;2022-11-09T09:25:06;4.15;;;3.75;;
14760;SDS011;7472;45.396;5.272;2022-11-09T09:27:34;4.05;;;3.65;;
14760;SDS011;7472;45.396;5.272;2022-11-09T09:30:03;4.93;;;4.40;;
14760;SDS011;7472;45.396;5.272;2022-11-09T09:32:31;4.63;;;3.90;;
14760;SDS011;7472;45.396;5.272;2022-11-09T09:34:58;4.13;;;3.72;;
14760;SDS011;7472;45.396;5.272;2022-11-09T09:37:26;4.32;;;3.72;;
14760;SDS011;7472;45.396;5.272;2022-11-09T09:39:53;9.80;;;4.18;;
14760;SDS011;7472;45.396;5.272;2022-11-09T09:42:22;4.00;;;3.60;;
14760;SDS011;7472;45.396;5.272;2022-11-09T09:44:52;4.35;;;3.95;;
14760;SDS011;7472;45.396;5.272;2022-11-09T09:47:23;5.18;;;4.68;;
14760;SDS011;7472;45.396;5.272;2022-11-09T09:49:55;6.30;;;5.10;;
14760;SDS011;7472;45.396;5.272;2022-11-09T09:52:25;6.35;;;5.13;;
14760;SDS011;7472;45.396;5.272;2022-11-09T09:54:56;5.07;;;4.68;;
14760;SDS011;7472;45.396;5.272;2022-11-09T09:57:25;4.43;;;4.03;;
14760;SDS011;7472;45.396;5.272;2022-11-09T09:59:54;4.63;;;3.85;;
14760;SDS011;7472;45.396;5.272;2022-11-09T10:02:25;5.38;;;4.88;;
14760;SDS011;7472;45.396;5.272;2022-11-09T10:04:53;6.18;;;5.65;;
14760;SDS011;7472;45.396;5.272;2022-11-09T10:07:22;6.20;;;5.28;;
14760;SDS011;7472;45.396;5.272;2022-11-09T10:09:58;7.40;;;5.10;;
14760;SDS011;7472;45.396;5.272;2022-11-09T10:12:31;6.47;;;5.88;;
14760;SDS011;7472;45.396;5.272;2022-11-09T10:15:05;9.45;;;8.02;;
14760;SDS011;7472;45.396;5.272;2022-11-09T10:17:39;15.95;;;11.30;;
14760;SDS011;7472;45.396;5.272;2022-11-09T10:20:12;17.80;;;15.90;;
14760;SDS011;7472;45.396;5.272;2022-11-09T10:22:45;12.82;;;9.48;;
14760;SDS011;7472;45.396;5.272;2022-11-09T10:25:16;9.38;;;7.97;;
14760;SDS011;7472;45.396;5.272;2022-11-09T10:27:48;8.20;;;7.40;;
14760;SDS011;7472;45.396;5.272;2022-11-09T10:30:18;8.50;;;7.65;;
14760;SDS011;7472;45.396;5.272;2022-11-09T10:32:47;8.07;;;7.00;;
14760;SDS011;7472;45.396;5.272;2022-11-09T10:35:16;12.32;;;11.02;;
14760;SDS011;7472;45.396;5.272;2022-11-09T10:37:45;13.13;;;11.85;;
14760;SDS011;7472;45.396;5.272;2022-11-09T10:40:15;14.43;;;12.98;;
14760;SDS011;7472;45.396;5.272;2022-11-09T10:42:44;17.85;;;13.00;;
14760;SDS011;7472;45.396;5.272;2022-11-09T10:45:14;14.15;;;10.70;;
14760;SDS011;7472;45.396;5.272;2022-11-09T10:47:47;11.80;;;10.75;;
14760;SDS011;7472;45.396;5.272;2022-11-09T10:50:20;8.88;;;7.97;;
14760;SDS011;7472;45.396;5.272;2022-11-09T10:52:49;5.60;;;4.47;;
14760;SDS011;7472;45.396;5.272;2022-11-09T10:55:21;5.40;;;4.88;;
14760;SDS011;7472;45.396;5.272;2022-11-09T10:57:49;3.83;;;2.92;;
14760;SDS011;7472;45.396;5.272;2022-11-09T11:00:17;3.97;;;3.58;;
14760;SDS011;7472;45.396;5.272;2022-11-09T11:02:47;3.00;;;2.72;;
14760;SDS011;7472;45.396;5.272;2022-11-09T11:05:20;4.95;;;2.80;;
14760;SDS011;7472;45.396;5.272;2022-11-09T11:07:48;4.90;;;3.33;;
14760;SDS011;7472;45.396;5.272;2022-11-09T11:10:18;5.88;;;3.05;;
14760;SDS011;7472;45.396;5.272;2022-11-09T11:12:50;4.93;;;2.33;;
14760;SDS011;7472;45.396;5.272;2022-11-09T11:15:20;2.58;;;2.10;;
14760;SDS011;7472;45.396;5.272;2022-11-09T11:17:50;4.18;;;2.10;;
14760;SDS011;7472;45.396;5.272;2022-11-09T11:20:27;4.15;;;2.10;;
14760;SDS011;7472;45.396;5.272;2022-11-09T11:23:04;3.53;;;2.08;;
14760;SDS011;7472;45.396;5.272;2022-11-09T11:25:32;2.92;;;2.67;;
14760;SDS011;7472;45.396;5.272;2022-11-09T11:28:01;8.25;;;5.10;;
14760;SDS011;7472;45.396;5.272;2022-11-09T11:30:31;5.05;;;3.78;;
14760;SDS011;7472;45.396;5.272;2022-11-09T11:33:02;6.65;;;3.50;;
14760;SDS011;7472;45.396;5.272;2022-11-09T11:35:33;4.70;;;3.22;;
14760;SDS011;7472;45.396;5.272;2022-11-09T11:38:08;6.15;;;3.25;;
14760;SDS011;7472;45.396;5.272;2022-11-09T11:40:39;6.60;;;3.08;;
14760;SDS011;7472;45.396;5.272;2022-11-09T11:43:18;3.55;;;2.80;;
14760;SDS011;7472;45.396;5.272;2022-11-09T11:45:48;5.07;;;3.83;;
14760;SDS011;7472;45.396;5.272;2022-11-09T11:48:31;4.72;;;3.47;;
14760;SDS011;7472;45.396;5.272;2022-11-09T11:51:00;5.60;;;3.17;;
14760;SDS011;7472;45.396;5.272;2022-11-09T11:53:33;4.53;;;4.05;;
14760;SDS011;7472;45.396;5.272;2022-11-09T11:56:11;5.22;;;4.38;;
14760;SDS011;7472;45.396;5.272;2022-11-09T11:58:47;6.50;;;4.10;;
14760;SDS011;7472;45.396;5.272;2022-11-09T12:01:21;6.25;;;4.65;;
14760;SDS011;7472;45.396;5.272;2022-11-09T12:03:53;7.95;;;5.05;;
14760;SDS011;7472;45.396;5.272;2022-11-09T12:06:28;5.95;;;4.53;;
14760;SDS011;7472;45.396;5.272;2022-11-09T12:09:07;6.72;;;3.90;;
14760;SDS011;7472;45.396;5.272;2022-11-09T12:11:39;5.00;;;4.50;;
14760;SDS011;7472;45.396;5.272;2022-11-09T12:14:12;6.00;;;3.30;;
14760;SDS011;7472;45.396;5.272;2022-11-09T12:16:43;5.32;;;3.65;;
14760;SDS011;7472;45.396;5.272;2022-11-09T12:19:28;4.55;;;3.75;;
14760;SDS011;7472;45.396;5.272;2022-11-09T12:22:01;6.63;;;5.90;;
14760;SDS011;7472;45.396;5.272;2022-11-09T12:24:34;4.20;;;2.95;;
14760;SDS011;7472;45.396;5.272;2022-11-09T12:27:07;2.97;;;2.67;;
14760;SDS011;7472;45.396;5.272;2022-11-09T12:29:42;3.63;;;2.78;;
14760;SDS011;7472;45.396;5.272;2022-11-09T12:32:16;6.43;;;3.03;;
14760;SDS011;7472;45.396;5.272;2022-11-09T12:34:50;6.85;;;4.10;;
14760;SDS011;7472;45.396;5.272;2022-11-09T12:37:22;6.28;;;4.45;;
14760;SDS011;7472;45.396;5.272;2022-11-09T12:39:52;6.05;;;4.03;;
14760;SDS011;7472;45.396;5.272;2022-11-09T12:42:22;5.85;;;5.35;;
14760;SDS011;7472;45.396;5.272;2022-11-09T12:45:00;4.10;;;3.30;;
14760;SDS011;7472;45.396;5.272;2022-11-09T12:47:29;3.90;;;3.35;;
14760;SDS011;7472;45.396;5.272;2022-11-09T12:49:59;2.20;;;1.73;;
14760;SDS011;7472;45.396;5.272;2022-11-09T12:52:27;1.65;;;1.40;;
14760;SDS011;7472;45.396;5.272;2022-11-09T12:54:55;2.50;;;1.17;;
14760;SDS011;7472;45.396;5.272;2022-11-09T12:57:27;1.40;;;1.27;;
14760;SDS011;7472;45.396;5.272;2022-11-09T12:59:55;1.02;;;1.00;;
14760;SDS011;7472;45.396;5.272;2022-11-09T13:02:26;4.90;;;1.02;;
14760;SDS011;7472;45.396;5.272;2022-11-09T13:04:57;1.75;;;1.20;;
14760;SDS011;7472;45.396;5.272;2022-11-09T13:10:29;1.40;;;0.65;;
14760;SDS011;7472;45.396;5.272;2022-11-09T13:13:04;0.57;;;0.50;;
14760;SDS011;7472;45.396;5.272;2022-11-09T13:15:31;1.02;;;0.70;;
14760;SDS011;7472;45.396;5.272;2022-11-09T13:18:00;0.50;;;0.40;;
14760;SDS011;7472;45.396;5.272;2022-11-09T13:20:44;1.27;;;0.90;;
14760;SDS011;7472;45.396;5.272;2022-11-09T13:23:31;2.03;;;1.00;;
14760;SDS011;7472;45.396;5.272;2022-11-09T13:26:02;1.95;;;1.00;;
14760;SDS011;7472;45.396;5.272;2022-11-09T13:28:42;3.47;;;1.50;;
14760;SDS011;7472;45.396;5.272;2022-11-09T13:31:10;1.30;;;0.90;;
14760;SDS011;7472;45.396;5.272;2022-11-09T13:33:38;3.05;;;1.92;;
14760;SDS011;7472;45.396;5.272;2022-11-09T13:38:42;2.13;;;1.10;;
14760;SDS011;7472;45.396;5.272;2022-11-09T13:44:06;1.85;;;1.35;;
14760;SDS011;7472;45.396;5.272;2022-11-09T13:46:36;1.60;;;1.50;;
14760;SDS011;7472;45.396;5.272;2022-11-09T13:49:22;6.15;;;3.97;;
14760;SDS011;7472;45.396;5.272;2022-11-09T13:51:56;6.88;;;4.40;;
14760;SDS011;7472;45.396;5.272;2022-11-09T13:54:27;6.07;;;3.67;;
14760;SDS011;7472;45.396;5.272;2022-11-09T13:56:55;4.32;;;3.08;;
14760;SDS011;7472;45.396;5.272;2022-11-09T13:59:25;3.67;;;2.38;;
14760;SDS011;7472;45.396;5.272;2022-11-09T14:01:53;2.45;;;2.00;;
14760;SDS011;7472;45.396;5.272;2022-11-09T14:04:22;2.47;;;1.75;;
14760;SDS011;7472;45.396;5.272;2022-11-09T14:06:52;2.03;;;1.67;;
14760;SDS011;7472;45.396;5.272;2022-11-09T14:09:21;4.28;;;1.67;;
14760;SDS011;7472;45.396;5.272;2022-11-09T14:11:55;3.95;;;1.90;;
14760;SDS011;7472;45.396;5.272;2022-11-09T14:14:37;2.67;;;1.50;;
14760;SDS011;7472;45.396;5.272;2022-11-09T14:17:09;3.55;;;1.60;;
14760;SDS011;7472;45.396;5.272;2022-11-09T14:19:45;5.93;;;2.75;;
14760;SDS011;7472;45.396;5.272;2022-11-09T14:22:15;5.43;;;2.95;;
14760;SDS011;7472;45.396;5.272;2022-11-09T14:24:44;4.13;;;3.45;;
14760;SDS011;7472;45.396;5.272;2022-11-09T14:27:13;4.35;;;3.13;;
14760;SDS011;7472;45.396;5.272;2022-11-09T14:29:50;4.07;;;3.20;;
14760;SDS011;7472;45.396;5.272;2022-11-09T14:32:22;5.65;;;3.83;;
14760;SDS011;7472;45.396;5.272;2022-11-09T14:34:50;4.38;;;3.40;;
14760;SDS011;7472;45.396;5.272;2022-11-09T14:37:17;3.88;;;2.70;;
14760;SDS011;7472;45.396;5.272;2022-11-09T14:39:46;3.72;;;2.45;;
14760;SDS011;7472;45.396;5.272;2022-11-09T14:42:16;3.65;;;1.90;;
14760;SDS011;7472;45.396;5.272;2022-11-09T14:44:44;2.50;;;1.80;;
14760;SDS011;7472;45.396;5.272;2022-11-09T14:47:14;1.42;;;1.30;;
14760;SDS011;7472;45.396;5.272;2022-11-09T14:49:42;1.90;;;1.10;;
14760;SDS011;7472;45.396;5.272;2022-11-09T14:52:11;1.90;;;1.48;;
14760;SDS011;7472;45.396;5.272;2022-11-09T14:54:39;1.85;;;1.30;;
14760;SDS011;7472;45.396;5.272;2022-11-09T14:57:07;1.48;;;1.20;;
14760;SDS011;7472;45.396;5.272;2022-11-09T14:59:35;1.55;;;1.30;;
14760;SDS011;7472;45.396;5.272;2022-11-09T15:02:03;3.10;;;1.38;;
14760;SDS011;7472;45.396;5.272;2022-11-09T15:07:16;3.47;;;1.73;;
14760;SDS011;7472;45.396;5.272;2022-11-09T15:09:45;2.05;;;1.75;;
14760;SDS011;7472;45.396;5.272;2022-11-09T15:12:13;1.70;;;1.60;;
14760;SDS011;7472;45.396;5.272;2022-11-09T15:14:41;2.72;;;1.60;;
14760;SDS011;7472;45.396;5.272;2022-11-09T15:17:11;2.05;;;1.88;;
14760;SDS011;7472;45.396;5.272;2022-11-09T15:19:46;2.17;;;1.50;;